sensor_id;sensor_type;location;lat;lon;timestamp;P1;durP1;ratioP1;P2;durP2;ratioP2
25153;SDS011;47555;51.038;6.280;2022-07-06T00:02:02;4.25;;;2.17;;
25153;SDS011;47555;51.038;6.280;2022-07-06T00:04:28;3.97;;;2.22;;
25153;SDS011;47555;51.038;6.280;2022-07-06T00:06:53;2.20;;;1.92;;
25153;SDS011;47555;51.038;6.280;2022-07-06T00:09:19;2.45;;;1.88;;
25153;SDS011;47555;51.038;6.280;2022-07-06T00:11:44;2.20;;;2.00;;
25153;SDS011;47555;51.038;6.280;2022-07-06T00:14:10;4.05;;;2.42;;
25153;SDS011;47555;51.038;6.280;2022-07-06T00:16:35;3.88;;;1.88;;
25153;SDS011;47555;51.038;6.280;2022-07-06T00:19:01;2.92;;;1.98;;
25153;SDS011;47555;51.038;6.280;2022-07-06T00:21:27;2.30;;;2.10;;
25153;SDS011;47555;51.038;6.280;2022-07-06T00:23:52;3.13;;;1.98;;
25153;SDS011;47555;51.038;6.280;2022-07-06T00:26:18;3.95;;;2.00;;
25153;SDS011;47555;51.038;6.280;2022-07-06T00:28:44;3.65;;;2.00;;
25153;SDS011;47555;51.038;6.280;2022-07-06T00:31:10;2.10;;;1.90;;
25153;SDS011;47555;51.038;6.280;2022-07-06T00:33:36;2.83;;;2.30;;
25153;SDS011;47555;51.038;6.280;2022-07-06T00:36:02;3.22;;;2.58;;
25153;SDS011;47555;51.038;6.280;2022-07-06T00:38:28;2.78;;;2.10;;
25153;SDS011;47555;51.038;6.280;2022-07-06T00:40:53;3.22;;;2.13;;
25153;SDS011;47555;51.038;6.280;2022-07-06T00:43:19;2.90;;;2.50;;
25153;SDS011;47555;51.038;6.280;2022-07-06T00:45:44;3.45;;;2.90;;
25153;SDS011;47555;51.038;6.280;2022-07-06T00:48:10;4.18;;;2.20;;
25153;SDS011;47555;51.038;6.280;2022-07-06T00:50:37;3.78;;;2.58;;
25153;SDS011;47555;51.038;6.280;2022-07-06T00:53:04;2.90;;;2.42;;
25153;SDS011;47555;51.038;6.280;2022-07-06T00:55:31;3.08;;;2.00;;
25153;SDS011;47555;51.038;6.280;2022-07-06T00:57:59;3.45;;;2.78;;
25153;SDS011;47555;51.038;6.280;2022-07-06T01:00:27;3.05;;;2.75;;
25153;SDS011;47555;51.038;6.280;2022-07-06T01:02:52;3.53;;;2.63;;
25153;SDS011;47555;51.038;6.280;2022-07-06T01:05:19;4.45;;;2.28;;
25153;SDS011;47555;51.038;6.280;2022-07-06T01:07:46;3.50;;;2.50;;
25153;SDS011;47555;51.038;6.280;2022-07-06T01:10:13;2.90;;;2.58;;
25153;SDS011;47555;51.038;6.280;2022-07-06T01:12:40;3.08;;;2.40;;
25153;SDS011;47555;51.038;6.280;2022-07-06T01:15:09;3.90;;;3.05;;
25153;SDS011;47555;51.038;6.280;2022-07-06T01:17:36;4.72;;;3.33;;
25153;SDS011;47555;51.038;6.280;2022-07-06T01:20:07;4.15;;;3.13;;
25153;SDS011;47555;51.038;6.280;2022-07-06T01:22:37;4.80;;;2.70;;
25153;SDS011;47555;51.038;6.280;2022-07-06T01:25:04;3.45;;;2.50;;
25153;SDS011;47555;51.038;6.280;2022-07-06T01:27:30;3.17;;;2.53;;
25153;SDS011;47555;51.038;6.280;2022-07-06T01:29:56;4.25;;;2.95;;
25153;SDS011;47555;51.038;6.280;2022-07-06T01:32:21;2.60;;;2.30;;
25153;SDS011;47555;51.038;6.280;2022-07-06T01:34:47;4.13;;;2.88;;
25153;SDS011;47555;51.038;6.280;2022-07-06T01:37:13;3.00;;;2.70;;
25153;SDS011;47555;51.038;6.280;2022-07-06T01:39:38;2.85;;;2.50;;
25153;SDS011;47555;51.038;6.280;2022-07-06T01:42:04;5.05;;;2.88;;
25153;SDS011;47555;51.038;6.280;2022-07-06T01:44:30;4.43;;;3.53;;
25153;SDS011;47555;51.038;6.280;2022-07-06T01:46:55;3.75;;;2.83;;
25153;SDS011;47555;51.038;6.280;2022-07-06T01:49:21;3.65;;;2.63;;
25153;SDS011;47555;51.038;6.280;2022-07-06T01:51:46;3.22;;;2.92;;
25153;SDS011;47555;51.038;6.280;2022-07-06T01:54:12;3.63;;;3.10;;
25153;SDS011;47555;51.038;6.280;2022-07-06T01:56:37;3.60;;;2.47;;
25153;SDS011;47555;51.038;6.280;2022-07-06T01:59:03;4.93;;;2.92;;
25153;SDS011;47555;51.038;6.280;2022-07-06T02:01:28;3.63;;;2.83;;
25153;SDS011;47555;51.038;6.280;2022-07-06T02:03:54;3.88;;;2.80;;
25153;SDS011;47555;51.038;6.280;2022-07-06T02:06:19;3.50;;;2.67;;
25153;SDS011;47555;51.038;6.280;2022-07-06T02:08:45;4.68;;;2.75;;
25153;SDS011;47555;51.038;6.280;2022-07-06T02:11:11;5.07;;;2.92;;
25153;SDS011;47555;51.038;6.280;2022-07-06T02:13:36;4.00;;;2.92;;
25153;SDS011;47555;51.038;6.280;2022-07-06T02:16:02;4.68;;;2.95;;
25153;SDS011;47555;51.038;6.280;2022-07-06T02:18:28;5.75;;;3.00;;
25153;SDS011;47555;51.038;6.280;2022-07-06T02:20:54;3.95;;;2.95;;
25153;SDS011;47555;51.038;6.280;2022-07-06T02:23:20;4.10;;;3.33;;
25153;SDS011;47555;51.038;6.280;2022-07-06T02:25:45;3.92;;;3.42;;
25153;SDS011;47555;51.038;6.280;2022-07-06T02:28:11;3.70;;;3.08;;
25153;SDS011;47555;51.038;6.280;2022-07-06T02:30:37;6.05;;;3.33;;
25153;SDS011;47555;51.038;6.280;2022-07-06T02:33:02;6.32;;;3.85;;
25153;SDS011;47555;51.038;6.280;2022-07-06T02:35:28;4.70;;;3.00;;
25153;SDS011;47555;51.038;6.280;2022-07-06T02:37:53;5.68;;;3.38;;
25153;SDS011;47555;51.038;6.280;2022-07-06T02:40:19;4.50;;;3.33;;
25153;SDS011;47555;51.038;6.280;2022-07-06T02:42:44;5.22;;;3.25;;
25153;SDS011;47555;51.038;6.280;2022-07-06T02:45:10;5.28;;;3.10;;
25153;SDS011;47555;51.038;6.280;2022-07-06T02:47:36;4.43;;;3.13;;
25153;SDS011;47555;51.038;6.280;2022-07-06T02:50:03;5.60;;;3.50;;
25153;SDS011;47555;51.038;6.280;2022-07-06T02:52:29;5.10;;;3.25;;
25153;SDS011;47555;51.038;6.280;2022-07-06T02:54:55;4.85;;;3.70;;
25153;SDS011;47555;51.038;6.280;2022-07-06T02:57:20;6.68;;;3.80;;
25153;SDS011;47555;51.038;6.280;2022-07-06T02:59:46;4.20;;;3.20;;
25153;SDS011;47555;51.038;6.280;2022-07-06T03:02:14;4.72;;;3.70;;
25153;SDS011;47555;51.038;6.280;2022-07-06T03:04:42;4.90;;;3.53;;
25153;SDS011;47555;51.038;6.280;2022-07-06T03:07:08;6.63;;;4.22;;
25153;SDS011;47555;51.038;6.280;2022-07-06T03:09:34;9.85;;;4.63;;
25153;SDS011;47555;51.038;6.280;2022-07-06T03:11:59;6.47;;;4.32;;
25153;SDS011;47555;51.038;6.280;2022-07-06T03:14:25;4.90;;;4.03;;
25153;SDS011;47555;51.038;6.280;2022-07-06T03:16:51;6.30;;;4.13;;
25153;SDS011;47555;51.038;6.280;2022-07-06T03:19:17;10.15;;;4.00;;
25153;SDS011;47555;51.038;6.280;2022-07-06T03:21:43;5.13;;;3.70;;
25153;SDS011;47555;51.038;6.280;2022-07-06T03:24:08;6.32;;;3.85;;
25153;SDS011;47555;51.038;6.280;2022-07-06T03:26:34;5.20;;;3.95;;
25153;SDS011;47555;51.038;6.280;2022-07-06T03:28:59;5.38;;;3.97;;
25153;SDS011;47555;51.038;6.280;2022-07-06T03:31:25;4.55;;;3.58;;
25153;SDS011;47555;51.038;6.280;2022-07-06T03:33:51;6.15;;;4.05;;
25153;SDS011;47555;51.038;6.280;2022-07-06T03:36:17;7.20;;;4.15;;
25153;SDS011;47555;51.038;6.280;2022-07-06T03:38:42;6.38;;;4.05;;
25153;SDS011;47555;51.038;6.280;2022-07-06T03:41:08;5.10;;;3.97;;
25153;SDS011;47555;51.038;6.280;2022-07-06T03:43:34;7.43;;;4.18;;
25153;SDS011;47555;51.038;6.280;2022-07-06T03:45:59;5.45;;;3.90;;
25153;SDS011;47555;51.038;6.280;2022-07-06T03:48:25;6.45;;;3.75;;
25153;SDS011;47555;51.038;6.280;2022-07-06T03:50:50;6.20;;;4.00;;
25153;SDS011;47555;51.038;6.280;2022-07-06T03:53:17;4.57;;;3.92;;
25153;SDS011;47555;51.038;6.280;2022-07-06T03:55:42;7.55;;;4.10;;
25153;SDS011;47555;51.038;6.280;2022-07-06T03:58:08;7.05;;;3.92;;
25153;SDS011;47555;51.038;6.280;2022-07-06T04:00:33;5.82;;;4.45;;
25153;SDS011;47555;51.038;6.280;2022-07-06T04:02:59;6.65;;;4.05;;
25153;SDS011;47555;51.038;6.280;2022-07-06T04:05:25;6.20;;;4.70;;
25153;SDS011;47555;51.038;6.280;2022-07-06T04:07:51;7.50;;;5.20;;
25153;SDS011;47555;51.038;6.280;2022-07-06T04:10:16;7.65;;;4.70;;
25153;SDS011;47555;51.038;6.280;2022-07-06T04:12:43;5.43;;;4.53;;
25153;SDS011;47555;51.038;6.280;2022-07-06T04:15:10;7.35;;;4.35;;
25153;SDS011;47555;51.038;6.280;2022-07-06T04:17:36;8.02;;;4.72;;
25153;SDS011;47555;51.038;6.280;2022-07-06T04:20:18;9.00;;;5.30;;
25153;SDS011;47555;51.038;6.280;2022-07-06T04:22:44;7.40;;;5.10;;
25153;SDS011;47555;51.038;6.280;2022-07-06T04:25:10;10.57;;;5.45;;
25153;SDS011;47555;51.038;6.280;2022-07-06T04:27:35;8.32;;;4.70;;
25153;SDS011;47555;51.038;6.280;2022-07-06T04:30:04;10.95;;;5.03;;
25153;SDS011;47555;51.038;6.280;2022-07-06T04:32:32;6.72;;;4.72;;
25153;SDS011;47555;51.038;6.280;2022-07-06T04:34:57;12.38;;;5.15;;
25153;SDS011;47555;51.038;6.280;2022-07-06T04:37:23;9.27;;;5.13;;
25153;SDS011;47555;51.038;6.280;2022-07-06T04:39:48;8.68;;;5.88;;
25153;SDS011;47555;51.038;6.280;2022-07-06T04:42:14;7.38;;;5.32;;
25153;SDS011;47555;51.038;6.280;2022-07-06T04:44:39;8.43;;;5.18;;
25153;SDS011;47555;51.038;6.280;2022-07-06T04:47:05;8.75;;;5.35;;
25153;SDS011;47555;51.038;6.280;2022-07-06T04:49:30;8.68;;;5.43;;
25153;SDS011;47555;51.038;6.280;2022-07-06T04:51:56;16.92;;;6.85;;
25153;SDS011;47555;51.038;6.280;2022-07-06T04:54:22;12.85;;;6.63;;
25153;SDS011;47555;51.038;6.280;2022-07-06T04:56:47;13.15;;;6.25;;
25153;SDS011;47555;51.038;6.280;2022-07-06T04:59:13;12.23;;;6.65;;
25153;SDS011;47555;51.038;6.280;2022-07-06T05:01:38;10.88;;;6.22;;
25153;SDS011;47555;51.038;6.280;2022-07-06T05:04:05;11.13;;;5.97;;
25153;SDS011;47555;51.038;6.280;2022-07-06T05:06:31;14.15;;;8.10;;
25153;SDS011;47555;51.038;6.280;2022-07-06T05:08:57;12.00;;;6.97;;
25153;SDS011;47555;51.038;6.280;2022-07-06T05:11:24;10.18;;;5.97;;
25153;SDS011;47555;51.038;6.280;2022-07-06T05:13:50;11.90;;;6.68;;
25153;SDS011;47555;51.038;6.280;2022-07-06T05:16:16;11.48;;;7.03;;
25153;SDS011;47555;51.038;6.280;2022-07-06T05:18:41;12.52;;;6.78;;
25153;SDS011;47555;51.038;6.280;2022-07-06T05:21:07;11.23;;;6.43;;
25153;SDS011;47555;51.038;6.280;2022-07-06T05:23:32;13.60;;;7.80;;
25153;SDS011;47555;51.038;6.280;2022-07-06T05:25:58;10.13;;;7.38;;
25153;SDS011;47555;51.038;6.280;2022-07-06T05:28:23;12.25;;;7.20;;
25153;SDS011;47555;51.038;6.280;2022-07-06T05:30:49;12.23;;;7.35;;
25153;SDS011;47555;51.038;6.280;2022-07-06T05:33:14;11.30;;;6.85;;
25153;SDS011;47555;51.038;6.280;2022-07-06T05:35:40;11.57;;;6.82;;
25153;SDS011;47555;51.038;6.280;2022-07-06T05:38:06;15.63;;;7.40;;
25153;SDS011;47555;51.038;6.280;2022-07-06T05:40:31;12.20;;;6.57;;
25153;SDS011;47555;51.038;6.280;2022-07-06T05:42:57;9.00;;;6.07;;
25153;SDS011;47555;51.038;6.280;2022-07-06T05:45:22;10.07;;;6.30;;
25153;SDS011;47555;51.038;6.280;2022-07-06T05:47:48;9.73;;;6.22;;
25153;SDS011;47555;51.038;6.280;2022-07-06T05:50:32;11.45;;;6.00;;
25153;SDS011;47555;51.038;6.280;2022-07-06T05:53:02;8.23;;;5.80;;
25153;SDS011;47555;51.038;6.280;2022-07-06T05:55:29;9.90;;;6.25;;
25153;SDS011;47555;51.038;6.280;2022-07-06T05:57:56;9.80;;;5.60;;
25153;SDS011;47555;51.038;6.280;2022-07-06T06:00:25;10.15;;;5.65;;
25153;SDS011;47555;51.038;6.280;2022-07-06T06:02:51;11.27;;;5.63;;
25153;SDS011;47555;51.038;6.280;2022-07-06T06:05:18;7.20;;;5.25;;
25153;SDS011;47555;51.038;6.280;2022-07-06T06:07:44;7.95;;;4.57;;
25153;SDS011;47555;51.038;6.280;2022-07-06T06:10:12;8.30;;;4.80;;
25153;SDS011;47555;51.038;6.280;2022-07-06T06:12:38;7.95;;;4.70;;
25153;SDS011;47555;51.038;6.280;2022-07-06T06:15:04;7.82;;;4.82;;
25153;SDS011;47555;51.038;6.280;2022-07-06T06:17:31;7.88;;;4.70;;
25153;SDS011;47555;51.038;6.280;2022-07-06T06:19:57;10.30;;;5.13;;
25153;SDS011;47555;51.038;6.280;2022-07-06T06:22:23;9.02;;;4.40;;
25153;SDS011;47555;51.038;6.280;2022-07-06T06:24:48;6.60;;;4.10;;
25153;SDS011;47555;51.038;6.280;2022-07-06T06:27:14;7.45;;;4.07;;
25153;SDS011;47555;51.038;6.280;2022-07-06T06:29:39;4.97;;;3.58;;
25153;SDS011;47555;51.038;6.280;2022-07-06T06:32:06;7.20;;;3.35;;
25153;SDS011;47555;51.038;6.280;2022-07-06T06:34:32;5.60;;;3.42;;
25153;SDS011;47555;51.038;6.280;2022-07-06T06:36:57;4.38;;;2.90;;
25153;SDS011;47555;51.038;6.280;2022-07-06T06:39:23;5.85;;;3.15;;
25153;SDS011;47555;51.038;6.280;2022-07-06T06:41:48;6.38;;;3.25;;
25153;SDS011;47555;51.038;6.280;2022-07-06T06:44:14;4.72;;;2.33;;
25153;SDS011;47555;51.038;6.280;2022-07-06T06:46:40;5.72;;;2.47;;
25153;SDS011;47555;51.038;6.280;2022-07-06T06:49:06;2.65;;;1.60;;
25153;SDS011;47555;51.038;6.280;2022-07-06T06:51:32;2.35;;;1.50;;
25153;SDS011;47555;51.038;6.280;2022-07-06T06:53:58;3.38;;;1.60;;
25153;SDS011;47555;51.038;6.280;2022-07-06T06:56:23;2.65;;;1.40;;
25153;SDS011;47555;51.038;6.280;2022-07-06T06:58:49;2.42;;;1.38;;
25153;SDS011;47555;51.038;6.280;2022-07-06T07:01:15;4.68;;;1.55;;
25153;SDS011;47555;51.038;6.280;2022-07-06T07:03:40;2.42;;;1.50;;
25153;SDS011;47555;51.038;6.280;2022-07-06T07:06:06;2.45;;;1.42;;
25153;SDS011;47555;51.038;6.280;2022-07-06T07:08:31;1.98;;;1.30;;
25153;SDS011;47555;51.038;6.280;2022-07-06T07:10:57;1.65;;;1.52;;
25153;SDS011;47555;51.038;6.280;2022-07-06T07:13:23;2.83;;;1.70;;
25153;SDS011;47555;51.038;6.280;2022-07-06T07:15:48;2.40;;;1.60;;
25153;SDS011;47555;51.038;6.280;2022-07-06T07:18:14;2.35;;;1.58;;
25153;SDS011;47555;51.038;6.280;2022-07-06T07:20:40;3.58;;;2.00;;
25153;SDS011;47555;51.038;6.280;2022-07-06T07:23:05;4.15;;;1.70;;
25153;SDS011;47555;51.038;6.280;2022-07-06T07:25:31;2.95;;;1.70;;
25153;SDS011;47555;51.038;6.280;2022-07-06T07:27:56;2.70;;;1.75;;
25153;SDS011;47555;51.038;6.280;2022-07-06T07:30:22;3.88;;;2.05;;
25153;SDS011;47555;51.038;6.280;2022-07-06T07:32:48;6.53;;;1.90;;
25153;SDS011;47555;51.038;6.280;2022-07-06T07:35:13;3.67;;;1.90;;
25153;SDS011;47555;51.038;6.280;2022-07-06T07:37:39;3.95;;;1.42;;
25153;SDS011;47555;51.038;6.280;2022-07-06T07:40:04;4.10;;;1.45;;
25153;SDS011;47555;51.038;6.280;2022-07-06T07:42:31;3.75;;;1.98;;
25153;SDS011;47555;51.038;6.280;2022-07-06T07:44:57;5.20;;;1.80;;
25153;SDS011;47555;51.038;6.280;2022-07-06T07:47:23;1.63;;;1.40;;
25153;SDS011;47555;51.038;6.280;2022-07-06T07:49:49;2.00;;;1.73;;
25153;SDS011;47555;51.038;6.280;2022-07-06T07:52:14;2.17;;;1.50;;
25153;SDS011;47555;51.038;6.280;2022-07-06T07:54:40;1.20;;;1.10;;
25153;SDS011;47555;51.038;6.280;2022-07-06T07:57:06;1.67;;;1.20;;
25153;SDS011;47555;51.038;6.280;2022-07-06T07:59:31;1.25;;;1.00;;
25153;SDS011;47555;51.038;6.280;2022-07-06T08:01:57;1.75;;;1.00;;
25153;SDS011;47555;51.038;6.280;2022-07-06T08:04:23;2.95;;;1.00;;
25153;SDS011;47555;51.038;6.280;2022-07-06T08:06:48;1.77;;;0.93;;
25153;SDS011;47555;51.038;6.280;2022-07-06T08:09:14;2.92;;;1.45;;
25153;SDS011;47555;51.038;6.280;2022-07-06T08:11:41;2.80;;;1.40;;
25153;SDS011;47555;51.038;6.280;2022-07-06T08:14:07;1.55;;;1.20;;
25153;SDS011;47555;51.038;6.280;2022-07-06T08:16:33;2.17;;;1.35;;
25153;SDS011;47555;51.038;6.280;2022-07-06T08:18:58;3.42;;;1.15;;
25153;SDS011;47555;51.038;6.280;2022-07-06T08:21:24;3.55;;;1.20;;
25153;SDS011;47555;51.038;6.280;2022-07-06T08:23:50;3.25;;;1.10;;
25153;SDS011;47555;51.038;6.280;2022-07-06T08:26:15;1.95;;;1.30;;
25153;SDS011;47555;51.038;6.280;2022-07-06T08:28:41;1.33;;;1.17;;
25153;SDS011;47555;51.038;6.280;2022-07-06T08:31:07;3.33;;;1.00;;
25153;SDS011;47555;51.038;6.280;2022-07-06T08:33:32;1.55;;;1.08;;
25153;SDS011;47555;51.038;6.280;2022-07-06T08:35:58;1.98;;;1.00;;
25153;SDS011;47555;51.038;6.280;2022-07-06T08:38:24;2.22;;;1.02;;
25153;SDS011;47555;51.038;6.280;2022-07-06T08:40:50;1.88;;;0.90;;
25153;SDS011;47555;51.038;6.280;2022-07-06T08:43:16;0.90;;;0.90;;
25153;SDS011;47555;51.038;6.280;2022-07-06T08:45:42;1.00;;;0.80;;
25153;SDS011;47555;51.038;6.280;2022-07-06T08:48:09;1.40;;;0.90;;
25153;SDS011;47555;51.038;6.280;2022-07-06T08:50:36;1.30;;;0.80;;
25153;SDS011;47555;51.038;6.280;2022-07-06T08:53:02;1.77;;;0.90;;
25153;SDS011;47555;51.038;6.280;2022-07-06T08:55:28;1.17;;;0.85;;
25153;SDS011;47555;51.038;6.280;2022-07-06T08:57:54;0.90;;;0.80;;
25153;SDS011;47555;51.038;6.280;2022-07-06T09:00:20;3.05;;;0.90;;
25153;SDS011;47555;51.038;6.280;2022-07-06T09:02:47;0.80;;;0.80;;
25153;SDS011;47555;51.038;6.280;2022-07-06T09:05:16;1.77;;;0.80;;
25153;SDS011;47555;51.038;6.280;2022-07-06T09:07:43;2.25;;;0.90;;
25153;SDS011;47555;51.038;6.280;2022-07-06T09:10:13;1.17;;;0.90;;
25153;SDS011;47555;51.038;6.280;2022-07-06T09:12:39;1.75;;;0.98;;
25153;SDS011;47555;51.038;6.280;2022-07-06T09:15:05;1.33;;;0.95;;
25153;SDS011;47555;51.038;6.280;2022-07-06T09:17:31;1.75;;;1.05;;
25153;SDS011;47555;51.038;6.280;2022-07-06T09:19:57;2.17;;;0.90;;
25153;SDS011;47555;51.038;6.280;2022-07-06T09:22:26;2.17;;;1.20;;
25153;SDS011;47555;51.038;6.280;2022-07-06T09:25:00;1.20;;;0.80;;
25153;SDS011;47555;51.038;6.280;2022-07-06T09:27:37;2.63;;;0.88;;
25153;SDS011;47555;51.038;6.280;2022-07-06T09:30:15;2.05;;;0.80;;
25153;SDS011;47555;51.038;6.280;2022-07-06T09:32:41;1.88;;;0.77;;
25153;SDS011;47555;51.038;6.280;2022-07-06T09:38:06;1.70;;;0.80;;
25153;SDS011;47555;51.038;6.280;2022-07-06T09:40:32;2.38;;;0.80;;
25153;SDS011;47555;51.038;6.280;2022-07-06T09:43:13;2.28;;;0.82;;
25153;SDS011;47555;51.038;6.280;2022-07-06T09:45:39;1.90;;;0.80;;
25153;SDS011;47555;51.038;6.280;2022-07-06T09:48:08;1.00;;;0.70;;
25153;SDS011;47555;51.038;6.280;2022-07-06T09:50:42;1.85;;;0.93;;
25153;SDS011;47555;51.038;6.280;2022-07-06T09:53:09;2.25;;;1.13;;
25153;SDS011;47555;51.038;6.280;2022-07-06T09:55:36;0.90;;;0.77;;
25153;SDS011;47555;51.038;6.280;2022-07-06T09:58:02;1.83;;;0.80;;
25153;SDS011;47555;51.038;6.280;2022-07-06T10:00:28;2.20;;;0.90;;
25153;SDS011;47555;51.038;6.280;2022-07-06T10:02:54;2.30;;;0.85;;
25153;SDS011;47555;51.038;6.280;2022-07-06T10:05:20;2.33;;;0.98;;
25153;SDS011;47555;51.038;6.280;2022-07-06T10:10:20;1.85;;;1.00;;
25153;SDS011;47555;51.038;6.280;2022-07-06T10:12:48;1.60;;;0.82;;
25153;SDS011;47555;51.038;6.280;2022-07-06T10:15:15;1.08;;;0.90;;
25153;SDS011;47555;51.038;6.280;2022-07-06T10:17:42;1.48;;;0.88;;
25153;SDS011;47555;51.038;6.280;2022-07-06T10:20:11;1.23;;;0.80;;
25153;SDS011;47555;51.038;6.280;2022-07-06T10:22:37;1.33;;;0.77;;
25153;SDS011;47555;51.038;6.280;2022-07-06T10:25:04;2.72;;;0.98;;
25153;SDS011;47555;51.038;6.280;2022-07-06T10:27:30;2.75;;;1.00;;
25153;SDS011;47555;51.038;6.280;2022-07-06T10:29:57;1.38;;;1.00;;
25153;SDS011;47555;51.038;6.280;2022-07-06T10:32:23;1.75;;;0.90;;
25153;SDS011;47555;51.038;6.280;2022-07-06T10:34:50;2.58;;;1.10;;
25153;SDS011;47555;51.038;6.280;2022-07-06T10:37:25;4.65;;;0.88;;
25153;SDS011;47555;51.038;6.280;2022-07-06T10:39:52;1.05;;;0.85;;
25153;SDS011;47555;51.038;6.280;2022-07-06T10:45:21;3.00;;;0.98;;
25153;SDS011;47555;51.038;6.280;2022-07-06T10:50:37;1.80;;;0.80;;
25153;SDS011;47555;51.038;6.280;2022-07-06T10:53:04;1.55;;;0.90;;
25153;SDS011;47555;51.038;6.280;2022-07-06T10:55:37;2.25;;;0.93;;
25153;SDS011;47555;51.038;6.280;2022-07-06T10:58:08;1.15;;;0.70;;
25153;SDS011;47555;51.038;6.280;2022-07-06T11:00:51;1.02;;;0.70;;
25153;SDS011;47555;51.038;6.280;2022-07-06T11:03:31;2.25;;;1.02;;
25153;SDS011;47555;51.038;6.280;2022-07-06T11:08:42;1.02;;;0.90;;
25153;SDS011;47555;51.038;6.280;2022-07-06T11:16:24;1.25;;;0.90;;
25153;SDS011;47555;51.038;6.280;2022-07-06T11:18:59;1.50;;;0.80;;
25153;SDS011;47555;51.038;6.280;2022-07-06T11:21:40;1.70;;;0.70;;
25153;SDS011;47555;51.038;6.280;2022-07-06T11:24:20;0.68;;;0.68;;
25153;SDS011;47555;51.038;6.280;2022-07-06T11:26:54;1.70;;;0.80;;
25153;SDS011;47555;51.038;6.280;2022-07-06T11:29:22;1.15;;;0.80;;
25153;SDS011;47555;51.038;6.280;2022-07-06T11:31:50;1.52;;;0.93;;
25153;SDS011;47555;51.038;6.280;2022-07-06T11:34:18;1.20;;;1.10;;
25153;SDS011;47555;51.038;6.280;2022-07-06T11:36:46;2.45;;;1.33;;
25153;SDS011;47555;51.038;6.280;2022-07-06T11:39:12;1.35;;;1.00;;
25153;SDS011;47555;51.038;6.280;2022-07-06T11:41:39;1.85;;;1.13;;
25153;SDS011;47555;51.038;6.280;2022-07-06T11:44:04;1.98;;;1.00;;
25153;SDS011;47555;51.038;6.280;2022-07-06T11:46:31;2.50;;;1.33;;
25153;SDS011;47555;51.038;6.280;2022-07-06T11:49:00;1.50;;;1.00;;
25153;SDS011;47555;51.038;6.280;2022-07-06T11:51:31;3.08;;;1.10;;
25153;SDS011;47555;51.038;6.280;2022-07-06T11:53:59;3.42;;;1.20;;
25153;SDS011;47555;51.038;6.280;2022-07-06T11:56:26;0.90;;;0.90;;
25153;SDS011;47555;51.038;6.280;2022-07-06T11:58:56;1.13;;;1.00;;
25153;SDS011;47555;51.038;6.280;2022-07-06T12:01:24;2.63;;;1.30;;
25153;SDS011;47555;51.038;6.280;2022-07-06T12:03:51;1.60;;;1.10;;
25153;SDS011;47555;51.038;6.280;2022-07-06T12:06:21;2.83;;;1.20;;
25153;SDS011;47555;51.038;6.280;2022-07-06T12:08:52;3.33;;;1.00;;
25153;SDS011;47555;51.038;6.280;2022-07-06T12:13:54;1.33;;;0.90;;
25153;SDS011;47555;51.038;6.280;2022-07-06T12:16:31;2.42;;;1.17;;
25153;SDS011;47555;51.038;6.280;2022-07-06T12:18:59;1.88;;;0.85;;
25153;SDS011;47555;51.038;6.280;2022-07-06T12:21:25;5.57;;;1.30;;
25153;SDS011;47555;51.038;6.280;2022-07-06T12:23:51;0.90;;;0.90;;
25153;SDS011;47555;51.038;6.280;2022-07-06T12:26:19;2.15;;;1.10;;
25153;SDS011;47555;51.038;6.280;2022-07-06T12:28:46;2.45;;;1.05;;
25153;SDS011;47555;51.038;6.280;2022-07-06T12:31:31;1.30;;;0.95;;
25153;SDS011;47555;51.038;6.280;2022-07-06T12:33:57;3.05;;;0.93;;
25153;SDS011;47555;51.038;6.280;2022-07-06T12:36:23;2.35;;;1.10;;
25153;SDS011;47555;51.038;6.280;2022-07-06T12:38:49;1.25;;;0.85;;
25153;SDS011;47555;51.038;6.280;2022-07-06T12:41:27;1.38;;;1.00;;
25153;SDS011;47555;51.038;6.280;2022-07-06T12:44:16;1.83;;;0.88;;
25153;SDS011;47555;51.038;6.280;2022-07-06T12:46:44;1.88;;;0.88;;
25153;SDS011;47555;51.038;6.280;2022-07-06T12:49:14;1.35;;;1.13;;
25153;SDS011;47555;51.038;6.280;2022-07-06T12:51:51;2.05;;;1.00;;
25153;SDS011;47555;51.038;6.280;2022-07-06T12:54:22;2.10;;;1.20;;
25153;SDS011;47555;51.038;6.280;2022-07-06T12:57:03;0.90;;;0.90;;
25153;SDS011;47555;51.038;6.280;2022-07-06T12:59:31;1.90;;;1.33;;
25153;SDS011;47555;51.038;6.280;2022-07-06T13:02:00;2.92;;;1.35;;
25153;SDS011;47555;51.038;6.280;2022-07-06T13:04:26;1.20;;;1.10;;
25153;SDS011;47555;51.038;6.280;2022-07-06T13:06:53;2.10;;;1.20;;
25153;SDS011;47555;51.038;6.280;2022-07-06T13:09:19;1.25;;;1.20;;
25153;SDS011;47555;51.038;6.280;2022-07-06T13:11:46;2.10;;;1.40;;
25153;SDS011;47555;51.038;6.280;2022-07-06T13:14:13;1.40;;;1.30;;
25153;SDS011;47555;51.038;6.280;2022-07-06T13:16:40;2.63;;;1.25;;
25153;SDS011;47555;51.038;6.280;2022-07-06T13:19:06;3.35;;;1.50;;
25153;SDS011;47555;51.038;6.280;2022-07-06T13:21:32;1.77;;;1.05;;
25153;SDS011;47555;51.038;6.280;2022-07-06T13:23:57;2.08;;;1.20;;
25153;SDS011;47555;51.038;6.280;2022-07-06T13:26:23;1.88;;;1.20;;
25153;SDS011;47555;51.038;6.280;2022-07-06T13:28:48;1.38;;;1.15;;
25153;SDS011;47555;51.038;6.280;2022-07-06T13:31:14;2.25;;;1.10;;
25153;SDS011;47555;51.038;6.280;2022-07-06T13:33:39;2.58;;;1.42;;
25153;SDS011;47555;51.038;6.280;2022-07-06T13:36:05;2.30;;;1.10;;
25153;SDS011;47555;51.038;6.280;2022-07-06T13:38:31;3.97;;;1.10;;
25153;SDS011;47555;51.038;6.280;2022-07-06T13:40:56;1.95;;;1.38;;
25153;SDS011;47555;51.038;6.280;2022-07-06T13:43:22;1.30;;;1.20;;
25153;SDS011;47555;51.038;6.280;2022-07-06T13:45:48;1.80;;;1.38;;
25153;SDS011;47555;51.038;6.280;2022-07-06T13:48:14;1.92;;;1.25;;
25153;SDS011;47555;51.038;6.280;2022-07-06T13:50:39;1.85;;;1.30;;
25153;SDS011;47555;51.038;6.280;2022-07-06T13:53:05;1.60;;;1.50;;
25153;SDS011;47555;51.038;6.280;2022-07-06T13:55:31;2.08;;;1.50;;
25153;SDS011;47555;51.038;6.280;2022-07-06T13:57:57;1.58;;;1.48;;
25153;SDS011;47555;51.038;6.280;2022-07-06T14:00:23;2.13;;;1.55;;
25153;SDS011;47555;51.038;6.280;2022-07-06T14:02:49;1.50;;;1.40;;
25153;SDS011;47555;51.038;6.280;2022-07-06T14:05:15;1.83;;;1.73;;
25153;SDS011;47555;51.038;6.280;2022-07-06T14:07:40;1.83;;;1.65;;
25153;SDS011;47555;51.038;6.280;2022-07-06T14:10:06;3.10;;;1.55;;
25153;SDS011;47555;51.038;6.280;2022-07-06T14:12:32;1.50;;;1.40;;
25153;SDS011;47555;51.038;6.280;2022-07-06T14:14:57;1.48;;;1.38;;
25153;SDS011;47555;51.038;6.280;2022-07-06T14:17:23;2.33;;;1.27;;
25153;SDS011;47555;51.038;6.280;2022-07-06T14:19:50;1.40;;;1.30;;
25153;SDS011;47555;51.038;6.280;2022-07-06T14:22:16;1.58;;;1.20;;
25153;SDS011;47555;51.038;6.280;2022-07-06T14:24:42;1.55;;;1.30;;
25153;SDS011;47555;51.038;6.280;2022-07-06T14:27:07;3.83;;;1.50;;
25153;SDS011;47555;51.038;6.280;2022-07-06T14:29:33;1.95;;;1.20;;
25153;SDS011;47555;51.038;6.280;2022-07-06T14:31:58;2.55;;;1.80;;
25153;SDS011;47555;51.038;6.280;2022-07-06T14:34:24;1.20;;;1.10;;
25153;SDS011;47555;51.038;6.280;2022-07-06T14:36:50;1.67;;;1.58;;
25153;SDS011;47555;51.038;6.280;2022-07-06T14:39:16;3.25;;;1.70;;
25153;SDS011;47555;51.038;6.280;2022-07-06T14:41:41;2.33;;;1.55;;
25153;SDS011;47555;51.038;6.280;2022-07-06T14:44:07;2.30;;;1.20;;
25153;SDS011;47555;51.038;6.280;2022-07-06T14:46:32;1.40;;;1.10;;
25153;SDS011;47555;51.038;6.280;2022-07-06T14:48:59;1.63;;;1.35;;
25153;SDS011;47555;51.038;6.280;2022-07-06T14:51:25;1.70;;;1.10;;
25153;SDS011;47555;51.038;6.280;2022-07-06T14:53:50;1.60;;;1.20;;
25153;SDS011;47555;51.038;6.280;2022-07-06T14:56:16;2.25;;;1.20;;
25153;SDS011;47555;51.038;6.280;2022-07-06T14:58:41;1.83;;;1.10;;
25153;SDS011;47555;51.038;6.280;2022-07-06T15:01:07;2.05;;;1.27;;
25153;SDS011;47555;51.038;6.280;2022-07-06T15:03:32;1.63;;;1.40;;
25153;SDS011;47555;51.038;6.280;2022-07-06T15:05:58;1.35;;;1.10;;